sensor_id;sensor_type;location;lat;lon;timestamp;temperature;humidity
47022;DHT22;32779;52.264;6.154;2024-03-25T00:01:31;5.50;99.90
47022;DHT22;32779;52.264;6.154;2024-03-25T00:03:57;5.50;99.90
47022;DHT22;32779;52.264;6.154;2024-03-25T00:06:22;5.50;99.90
47022;DHT22;32779;52.264;6.154;2024-03-25T00:08:48;5.50;99.90
47022;DHT22;32779;52.264;6.154;2024-03-25T00:11:13;5.50;99.90
47022;DHT22;32779;52.264;6.154;2024-03-25T00:13:39;5.60;99.90
47022;DHT22;32779;52.264;6.154;2024-03-25T00:16:05;5.60;99.90
47022;DHT22;32779;52.264;6.154;2024-03-25T00:18:32;5.60;99.90
47022;DHT22;32779;52.264;6.154;2024-03-25T00:20:57;5.50;99.90
47022;DHT22;32779;52.264;6.154;2024-03-25T00:23:23;5.60;99.90
47022;DHT22;32779;52.264;6.154;2024-03-25T00:25:49;5.60;99.90
47022;DHT22;32779;52.264;6.154;2024-03-25T00:28:14;5.60;99.90
47022;DHT22;32779;52.264;6.154;2024-03-25T00:30:40;5.60;99.90
47022;DHT22;32779;52.264;6.154;2024-03-25T00:33:05;5.50;99.90
47022;DHT22;32779;52.264;6.154;2024-03-25T00:35:35;5.50;99.90
47022;DHT22;32779;52.264;6.154;2024-03-25T00:38:00;5.50;99.90
47022;DHT22;32779;52.264;6.154;2024-03-25T00:40:26;5.60;99.90
47022;DHT22;32779;52.264;6.154;2024-03-25T00:42:51;5.50;99.90
47022;DHT22;32779;52.264;6.154;2024-03-25T00:45:17;5.60;99.90
47022;DHT22;32779;52.264;6.154;2024-03-25T00:47:43;5.50;99.90
47022;DHT22;32779;52.264;6.154;2024-03-25T00:50:09;5.50;99.90
47022;DHT22;32779;52.264;6.154;2024-03-25T00:52:35;5.50;99.90
47022;DHT22;32779;52.264;6.154;2024-03-25T00:55:01;5.40;99.90
47022;DHT22;32779;52.264;6.154;2024-03-25T00:57:26;5.40;99.90
47022;DHT22;32779;52.264;6.154;2024-03-25T00:59:52;5.40;99.90
47022;DHT22;32779;52.264;6.154;2024-03-25T01:02:18;5.40;99.90
47022;DHT22;32779;52.264;6.154;2024-03-25T01:04:43;5.40;99.90
47022;DHT22;32779;52.264;6.154;2024-03-25T01:07:09;5.40;99.90
47022;DHT22;32779;52.264;6.154;2024-03-25T01:09:34;5.30;99.90
47022;DHT22;32779;52.264;6.154;2024-03-25T01:12:00;5.30;99.90
47022;DHT22;32779;52.264;6.154;2024-03-25T01:14:26;5.30;99.90
47022;DHT22;32779;52.264;6.154;2024-03-25T01:16:52;5.20;99.90
47022;DHT22;32779;52.264;6.154;2024-03-25T01:19:18;5.20;99.90
47022;DHT22;32779;52.264;6.154;2024-03-25T01:21:43;5.10;99.90
47022;DHT22;32779;52.264;6.154;2024-03-25T01:24:09;5.00;99.90
47022;DHT22;32779;52.264;6.154;2024-03-25T01:26:35;5.00;99.90
47022;DHT22;32779;52.264;6.154;2024-03-25T01:29:01;4.90;99.90
47022;DHT22;32779;52.264;6.154;2024-03-25T01:31:27;4.90;99.90
47022;DHT22;32779;52.264;6.154;2024-03-25T01:33:52;4.70;99.90
47022;DHT22;32779;52.264;6.154;2024-03-25T01:36:18;4.60;99.90
47022;DHT22;32779;52.264;6.154;2024-03-25T01:38:44;4.60;99.90
47022;DHT22;32779;52.264;6.154;2024-03-25T01:41:11;4.40;99.90
47022;DHT22;32779;52.264;6.154;2024-03-25T01:43:37;4.40;99.90
47022;DHT22;32779;52.264;6.154;2024-03-25T01:46:03;4.30;99.90
47022;DHT22;32779;52.264;6.154;2024-03-25T01:48:28;4.20;99.90
47022;DHT22;32779;52.264;6.154;2024-03-25T01:50:54;4.10;99.90
47022;DHT22;32779;52.264;6.154;2024-03-25T01:53:21;4.10;99.90
47022;DHT22;32779;52.264;6.154;2024-03-25T01:55:47;4.00;99.90
47022;DHT22;32779;52.264;6.154;2024-03-25T01:58:14;3.90;99.90
47022;DHT22;32779;52.264;6.154;2024-03-25T02:00:40;3.90;99.90
47022;DHT22;32779;52.264;6.154;2024-03-25T02:03:06;3.90;99.90
47022;DHT22;32779;52.264;6.154;2024-03-25T02:05:34;3.90;99.90
47022;DHT22;32779;52.264;6.154;2024-03-25T02:08:00;3.90;99.90
47022;DHT22;32779;52.264;6.154;2024-03-25T02:10:26;3.90;99.90
47022;DHT22;32779;52.264;6.154;2024-03-25T02:12:53;3.90;99.90
47022;DHT22;32779;52.264;6.154;2024-03-25T02:15:19;4.00;99.90
47022;DHT22;32779;52.264;6.154;2024-03-25T02:17:44;4.00;99.90
47022;DHT22;32779;52.264;6.154;2024-03-25T02:20:11;3.90;99.90
47022;DHT22;32779;52.264;6.154;2024-03-25T02:22:37;4.00;99.90
47022;DHT22;32779;52.264;6.154;2024-03-25T02:25:08;3.90;99.90
47022;DHT22;32779;52.264;6.154;2024-03-25T02:27:37;4.00;99.90
47022;DHT22;32779;52.264;6.154;2024-03-25T02:30:10;3.90;99.90
47022;DHT22;32779;52.264;6.154;2024-03-25T02:32:38;3.90;99.90
47022;DHT22;32779;52.264;6.154;2024-03-25T02:35:07;4.00;99.90
47022;DHT22;32779;52.264;6.154;2024-03-25T02:37:33;4.00;99.90
47022;DHT22;32779;52.264;6.154;2024-03-25T02:39:59;4.00;99.90
47022;DHT22;32779;52.264;6.154;2024-03-25T02:42:26;4.00;99.90
47022;DHT22;32779;52.264;6.154;2024-03-25T02:44:56;3.90;99.90
47022;DHT22;32779;52.264;6.154;2024-03-25T02:47:22;4.00;99.90
47022;DHT22;32779;52.264;6.154;2024-03-25T02:49:48;4.00;99.90
47022;DHT22;32779;52.264;6.154;2024-03-25T02:52:13;4.00;99.90
47022;DHT22;32779;52.264;6.154;2024-03-25T02:54:39;4.00;99.90
47022;DHT22;32779;52.264;6.154;2024-03-25T02:57:05;4.10;99.90
47022;DHT22;32779;52.264;6.154;2024-03-25T02:59:30;4.10;99.90
47022;DHT22;32779;52.264;6.154;2024-03-25T03:01:56;4.20;99.90
47022;DHT22;32779;52.264;6.154;2024-03-25T03:04:21;4.30;99.90
47022;DHT22;32779;52.264;6.154;2024-03-25T03:06:47;4.30;99.90
47022;DHT22;32779;52.264;6.154;2024-03-25T03:09:13;4.30;99.90
47022;DHT22;32779;52.264;6.154;2024-03-25T03:11:38;4.30;99.90
47022;DHT22;32779;52.264;6.154;2024-03-25T03:14:04;4.30;99.90
47022;DHT22;32779;52.264;6.154;2024-03-25T03:16:29;4.30;99.90
47022;DHT22;32779;52.264;6.154;2024-03-25T03:18:55;4.30;99.90
47022;DHT22;32779;52.264;6.154;2024-03-25T03:21:21;4.30;99.90
47022;DHT22;32779;52.264;6.154;2024-03-25T03:23:46;4.30;99.90
47022;DHT22;32779;52.264;6.154;2024-03-25T03:26:12;4.30;99.90
47022;DHT22;32779;52.264;6.154;2024-03-25T03:28:39;4.30;99.90
47022;DHT22;32779;52.264;6.154;2024-03-25T03:31:05;4.30;99.90
47022;DHT22;32779;52.264;6.154;2024-03-25T03:33:31;4.20;99.90
47022;DHT22;32779;52.264;6.154;2024-03-25T03:35:56;4.20;99.90
47022;DHT22;32779;52.264;6.154;2024-03-25T03:38:22;4.10;99.90
47022;DHT22;32779;52.264;6.154;2024-03-25T03:41:02;4.10;99.90
47022;DHT22;32779;52.264;6.154;2024-03-25T03:43:27;4.10;99.90
47022;DHT22;32779;52.264;6.154;2024-03-25T03:45:53;4.10;99.90
47022;DHT22;32779;52.264;6.154;2024-03-25T03:48:19;4.00;99.90
47022;DHT22;32779;52.264;6.154;2024-03-25T03:50:45;4.00;99.90
47022;DHT22;32779;52.264;6.154;2024-03-25T03:53:11;4.00;99.90
47022;DHT22;32779;52.264;6.154;2024-03-25T03:55:36;4.10;99.90
47022;DHT22;32779;52.264;6.154;2024-03-25T03:58:02;4.10;99.90
47022;DHT22;32779;52.264;6.154;2024-03-25T04:00:28;4.10;99.90
47022;DHT22;32779;52.264;6.154;2024-03-25T04:02:53;4.10;99.90
47022;DHT22;32779;52.264;6.154;2024-03-25T04:05:19;4.10;99.90
47022;DHT22;32779;52.264;6.154;2024-03-25T04:07:45;4.10;99.90
47022;DHT22;32779;52.264;6.154;2024-03-25T04:10:11;4.10;99.90
47022;DHT22;32779;52.264;6.154;2024-03-25T04:12:36;4.10;99.90
47022;DHT22;32779;52.264;6.154;2024-03-25T04:15:03;4.00;99.90
47022;DHT22;32779;52.264;6.154;2024-03-25T04:17:28;4.00;99.90
47022;DHT22;32779;52.264;6.154;2024-03-25T04:19:54;4.00;99.90
47022;DHT22;32779;52.264;6.154;2024-03-25T04:22:20;4.00;99.90
47022;DHT22;32779;52.264;6.154;2024-03-25T04:24:46;3.90;99.90
47022;DHT22;32779;52.264;6.154;2024-03-25T04:27:11;3.90;99.90
47022;DHT22;32779;52.264;6.154;2024-03-25T04:29:37;3.90;99.90
47022;DHT22;32779;52.264;6.154;2024-03-25T04:32:03;3.90;99.90
47022;DHT22;32779;52.264;6.154;2024-03-25T04:34:29;3.90;99.90
47022;DHT22;32779;52.264;6.154;2024-03-25T04:36:57;3.90;99.90
47022;DHT22;32779;52.264;6.154;2024-03-25T04:39:23;3.90;99.90
47022;DHT22;32779;52.264;6.154;2024-03-25T04:41:48;3.90;99.90
47022;DHT22;32779;52.264;6.154;2024-03-25T04:44:14;3.90;99.90
47022;DHT22;32779;52.264;6.154;2024-03-25T04:46:40;4.00;99.90
47022;DHT22;32779;52.264;6.154;2024-03-25T04:49:06;4.00;99.90
47022;DHT22;32779;52.264;6.154;2024-03-25T04:51:31;4.00;99.90
47022;DHT22;32779;52.264;6.154;2024-03-25T04:53:57;4.00;99.90
47022;DHT22;32779;52.264;6.154;2024-03-25T04:56:23;3.90;99.90
47022;DHT22;32779;52.264;6.154;2024-03-25T04:58:48;3.90;99.90
47022;DHT22;32779;52.264;6.154;2024-03-25T05:01:14;3.90;99.90
47022;DHT22;32779;52.264;6.154;2024-03-25T05:03:40;3.90;99.90
47022;DHT22;32779;52.264;6.154;2024-03-25T05:06:05;3.80;99.90
47022;DHT22;32779;52.264;6.154;2024-03-25T05:08:34;3.80;99.90
47022;DHT22;32779;52.264;6.154;2024-03-25T05:11:00;3.80;99.90
47022;DHT22;32779;52.264;6.154;2024-03-25T05:13:25;3.70;99.90
47022;DHT22;32779;52.264;6.154;2024-03-25T05:15:51;3.70;99.90
47022;DHT22;32779;52.264;6.154;2024-03-25T05:18:17;3.70;99.90
47022;DHT22;32779;52.264;6.154;2024-03-25T05:20:43;3.60;99.90
47022;DHT22;32779;52.264;6.154;2024-03-25T05:23:09;3.60;99.90
47022;DHT22;32779;52.264;6.154;2024-03-25T05:25:35;3.60;99.90
47022;DHT22;32779;52.264;6.154;2024-03-25T05:28:00;3.50;99.90
47022;DHT22;32779;52.264;6.154;2024-03-25T05:30:26;3.50;99.90
47022;DHT22;32779;52.264;6.154;2024-03-25T05:32:52;3.50;99.90
47022;DHT22;32779;52.264;6.154;2024-03-25T05:35:17;3.50;99.90
47022;DHT22;32779;52.264;6.154;2024-03-25T05:37:43;3.50;99.90
47022;DHT22;32779;52.264;6.154;2024-03-25T05:40:09;3.40;99.90
47022;DHT22;32779;52.264;6.154;2024-03-25T05:42:37;3.40;99.90
47022;DHT22;32779;52.264;6.154;2024-03-25T05:45:03;3.40;99.90
47022;DHT22;32779;52.264;6.154;2024-03-25T05:47:28;3.40;99.90
47022;DHT22;32779;52.264;6.154;2024-03-25T05:49:54;3.40;99.90
47022;DHT22;32779;52.264;6.154;2024-03-25T05:52:19;3.40;99.90
47022;DHT22;32779;52.264;6.154;2024-03-25T05:54:45;3.40;99.90
47022;DHT22;32779;52.264;6.154;2024-03-25T05:57:10;3.40;99.90
47022;DHT22;32779;52.264;6.154;2024-03-25T05:59:36;3.40;99.90
47022;DHT22;32779;52.264;6.154;2024-03-25T06:02:02;3.50;99.90
47022;DHT22;32779;52.264;6.154;2024-03-25T06:04:30;3.50;99.90
47022;DHT22;32779;52.264;6.154;2024-03-25T06:06:56;3.60;99.90
47022;DHT22;32779;52.264;6.154;2024-03-25T06:09:21;3.60;99.90
47022;DHT22;32779;52.264;6.154;2024-03-25T06:11:47;3.60;99.90
47022;DHT22;32779;52.264;6.154;2024-03-25T06:14:12;3.60;99.90
47022;DHT22;32779;52.264;6.154;2024-03-25T06:16:38;3.60;99.90
47022;DHT22;32779;52.264;6.154;2024-03-25T06:19:04;3.70;99.90
47022;DHT22;32779;52.264;6.154;2024-03-25T06:21:29;3.60;99.90
47022;DHT22;32779;52.264;6.154;2024-03-25T06:23:55;3.70;99.90
47022;DHT22;32779;52.264;6.154;2024-03-25T06:26:20;3.70;99.90
47022;DHT22;32779;52.264;6.154;2024-03-25T06:28:46;3.70;99.90
47022;DHT22;32779;52.264;6.154;2024-03-25T06:31:12;3.70;99.90
47022;DHT22;32779;52.264;6.154;2024-03-25T06:33:57;3.70;99.90
47022;DHT22;32779;52.264;6.154;2024-03-25T06:36:43;3.80;99.90
47022;DHT22;32779;52.264;6.154;2024-03-25T06:39:10;3.70;99.90
47022;DHT22;32779;52.264;6.154;2024-03-25T06:41:35;3.70;99.90
47022;DHT22;32779;52.264;6.154;2024-03-25T06:44:01;3.70;99.90
47022;DHT22;32779;52.264;6.154;2024-03-25T06:46:27;3.70;99.90
47022;DHT22;32779;52.264;6.154;2024-03-25T06:48:53;3.80;99.90
47022;DHT22;32779;52.264;6.154;2024-03-25T06:51:18;3.90;99.90
47022;DHT22;32779;52.264;6.154;2024-03-25T06:53:44;4.00;99.90
47022;DHT22;32779;52.264;6.154;2024-03-25T06:56:10;4.20;99.90
47022;DHT22;32779;52.264;6.154;2024-03-25T06:58:35;4.50;99.90
47022;DHT22;32779;52.264;6.154;2024-03-25T07:01:05;4.70;99.90
47022;DHT22;32779;52.264;6.154;2024-03-25T07:03:32;5.00;99.90
47022;DHT22;32779;52.264;6.154;2024-03-25T07:05:58;5.30;99.90
47022;DHT22;32779;52.264;6.154;2024-03-25T07:08:25;5.50;99.90
47022;DHT22;32779;52.264;6.154;2024-03-25T07:10:51;5.60;99.90
47022;DHT22;32779;52.264;6.154;2024-03-25T07:13:18;5.70;99.90
47022;DHT22;32779;52.264;6.154;2024-03-25T07:15:43;5.80;99.90
47022;DHT22;32779;52.264;6.154;2024-03-25T07:18:09;6.00;99.90
47022;DHT22;32779;52.264;6.154;2024-03-25T07:20:42;6.20;99.90
47022;DHT22;32779;52.264;6.154;2024-03-25T07:23:08;6.30;99.90
47022;DHT22;32779;52.264;6.154;2024-03-25T07:25:34;6.40;99.90
47022;DHT22;32779;52.264;6.154;2024-03-25T07:28:00;6.50;99.90
47022;DHT22;32779;52.264;6.154;2024-03-25T07:30:26;6.50;99.90
47022;DHT22;32779;52.264;6.154;2024-03-25T07:32:58;6.40;99.90
47022;DHT22;32779;52.264;6.154;2024-03-25T07:35:24;6.40;99.90
47022;DHT22;32779;52.264;6.154;2024-03-25T07:37:50;6.40;99.90
47022;DHT22;32779;52.264;6.154;2024-03-25T07:40:17;6.40;99.90
47022;DHT22;32779;52.264;6.154;2024-03-25T07:42:43;6.50;99.90
47022;DHT22;32779;52.264;6.154;2024-03-25T07:45:09;6.50;99.90
47022;DHT22;32779;52.264;6.154;2024-03-25T07:47:34;6.60;99.90
47022;DHT22;32779;52.264;6.154;2024-03-25T07:50:00;6.70;99.90
47022;DHT22;32779;52.264;6.154;2024-03-25T07:52:27;6.90;99.90
47022;DHT22;32779;52.264;6.154;2024-03-25T07:54:52;6.90;99.90
47022;DHT22;32779;52.264;6.154;2024-03-25T07:57:18;7.00;99.90
47022;DHT22;32779;52.264;6.154;2024-03-25T07:59:45;7.10;99.90
47022;DHT22;32779;52.264;6.154;2024-03-25T08:02:10;7.20;99.90
47022;DHT22;32779;52.264;6.154;2024-03-25T08:04:36;7.20;99.90
47022;DHT22;32779;52.264;6.154;2024-03-25T08:07:01;7.30;99.90
47022;DHT22;32779;52.264;6.154;2024-03-25T08:09:28;7.40;99.90
47022;DHT22;32779;52.264;6.154;2024-03-25T08:11:53;7.40;99.90
47022;DHT22;32779;52.264;6.154;2024-03-25T08:14:19;7.40;99.90
47022;DHT22;32779;52.264;6.154;2024-03-25T08:16:45;7.40;99.90
47022;DHT22;32779;52.264;6.154;2024-03-25T08:19:10;7.50;99.90
47022;DHT22;32779;52.264;6.154;2024-03-25T08:21:36;7.60;99.90
47022;DHT22;32779;52.264;6.154;2024-03-25T08:24:02;7.60;99.90
47022;DHT22;32779;52.264;6.154;2024-03-25T08:26:28;7.60;99.90
47022;DHT22;32779;52.264;6.154;2024-03-25T08:28:53;7.70;99.90
47022;DHT22;32779;52.264;6.154;2024-03-25T08:31:19;7.70;99.90
47022;DHT22;32779;52.264;6.154;2024-03-25T08:33:44;7.80;99.90
47022;DHT22;32779;52.264;6.154;2024-03-25T08:36:10;8.00;99.90
47022;DHT22;32779;52.264;6.154;2024-03-25T08:38:36;8.10;99.90
47022;DHT22;32779;52.264;6.154;2024-03-25T08:41:01;8.20;99.90
47022;DHT22;32779;52.264;6.154;2024-03-25T08:43:27;8.20;99.90
47022;DHT22;32779;52.264;6.154;2024-03-25T08:45:52;8.30;99.90
47022;DHT22;32779;52.264;6.154;2024-03-25T08:48:18;8.40;99.90
47022;DHT22;32779;52.264;6.154;2024-03-25T08:50:44;8.50;99.90
47022;DHT22;32779;52.264;6.154;2024-03-25T08:53:09;8.60;99.90
47022;DHT22;32779;52.264;6.154;2024-03-25T08:55:35;8.70;99.90
47022;DHT22;32779;52.264;6.154;2024-03-25T08:58:00;8.70;99.90
47022;DHT22;32779;52.264;6.154;2024-03-25T09:00:27;8.80;99.90
47022;DHT22;32779;52.264;6.154;2024-03-25T09:02:53;8.90;99.90
47022;DHT22;32779;52.264;6.154;2024-03-25T09:05:20;8.90;99.90
47022;DHT22;32779;52.264;6.154;2024-03-25T09:07:45;9.00;99.90
47022;DHT22;32779;52.264;6.154;2024-03-25T09:10:15;9.00;99.90
47022;DHT22;32779;52.264;6.154;2024-03-25T09:12:59;9.10;99.90
47022;DHT22;32779;52.264;6.154;2024-03-25T09:15:25;9.20;99.90
47022;DHT22;32779;52.264;6.154;2024-03-25T09:17:50;9.30;99.90
47022;DHT22;32779;52.264;6.154;2024-03-25T09:20:16;9.30;99.90
47022;DHT22;32779;52.264;6.154;2024-03-25T09:22:43;9.30;99.90
47022;DHT22;32779;52.264;6.154;2024-03-25T09:25:09;9.30;99.90
47022;DHT22;32779;52.264;6.154;2024-03-25T09:27:35;9.30;99.90
47022;DHT22;32779;52.264;6.154;2024-03-25T09:30:01;9.40;99.90
47022;DHT22;32779;52.264;6.154;2024-03-25T09:32:27;9.40;99.90
47022;DHT22;32779;52.264;6.154;2024-03-25T09:34:52;9.40;99.90
47022;DHT22;32779;52.264;6.154;2024-03-25T09:37:18;9.40;99.90
47022;DHT22;32779;52.264;6.154;2024-03-25T09:39:43;9.30;99.90
47022;DHT22;32779;52.264;6.154;2024-03-25T09:42:13;9.20;99.90
47022;DHT22;32779;52.264;6.154;2024-03-25T09:44:39;9.20;99.90
47022;DHT22;32779;52.264;6.154;2024-03-25T09:47:05;9.10;99.90
47022;DHT22;32779;52.264;6.154;2024-03-25T09:49:32;9.10;99.90
47022;DHT22;32779;52.264;6.154;2024-03-25T09:51:58;8.90;99.90
47022;DHT22;32779;52.264;6.154;2024-03-25T09:54:25;8.90;99.90
47022;DHT22;32779;52.264;6.154;2024-03-25T09:56:50;8.90;99.90
47022;DHT22;32779;52.264;6.154;2024-03-25T09:59:17;9.00;99.90
47022;DHT22;32779;52.264;6.154;2024-03-25T10:01:43;9.10;99.90
47022;DHT22;32779;52.264;6.154;2024-03-25T10:04:09;9.10;99.90
47022;DHT22;32779;52.264;6.154;2024-03-25T10:06:35;9.20;99.90
47022;DHT22;32779;52.264;6.154;2024-03-25T10:09:04;9.20;99.90
47022;DHT22;32779;52.264;6.154;2024-03-25T10:11:31;9.30;99.90
47022;DHT22;32779;52.264;6.154;2024-03-25T10:14:03;9.40;99.90
47022;DHT22;32779;52.264;6.154;2024-03-25T10:16:28;9.50;99.90
47022;DHT22;32779;52.264;6.154;2024-03-25T10:18:54;9.60;99.90
47022;DHT22;32779;52.264;6.154;2024-03-25T10:21:23;9.70;99.90
47022;DHT22;32779;52.264;6.154;2024-03-25T10:23:49;9.80;99.90
47022;DHT22;32779;52.264;6.154;2024-03-25T10:26:43;9.80;99.90
47022;DHT22;32779;52.264;6.154;2024-03-25T10:29:09;9.90;99.90
47022;DHT22;32779;52.264;6.154;2024-03-25T10:31:36;9.90;99.90
47022;DHT22;32779;52.264;6.154;2024-03-25T10:34:02;9.90;99.90
47022;DHT22;32779;52.264;6.154;2024-03-25T10:36:27;9.90;99.90
47022;DHT22;32779;52.264;6.154;2024-03-25T10:38:59;9.90;99.90
47022;DHT22;32779;52.264;6.154;2024-03-25T10:41:28;9.90;99.90
47022;DHT22;32779;52.264;6.154;2024-03-25T10:43:55;9.80;99.90
47022;DHT22;32779;52.264;6.154;2024-03-25T10:46:22;9.80;99.90
47022;DHT22;32779;52.264;6.154;2024-03-25T10:48:54;9.80;99.90
47022;DHT22;32779;52.264;6.154;2024-03-25T10:51:22;9.80;99.90
47022;DHT22;32779;52.264;6.154;2024-03-25T10:53:52;9.80;99.90
47022;DHT22;32779;52.264;6.154;2024-03-25T10:56:20;9.80;99.90
47022;DHT22;32779;52.264;6.154;2024-03-25T10:58:50;9.90;99.90
47022;DHT22;32779;52.264;6.154;2024-03-25T11:01:19;10.00;99.90
47022;DHT22;32779;52.264;6.154;2024-03-25T11:03:46;10.20;99.90
47022;DHT22;32779;52.264;6.154;2024-03-25T11:06:15;10.30;99.90
47022;DHT22;32779;52.264;6.154;2024-03-25T11:08:42;10.40;99.90
47022;DHT22;32779;52.264;6.154;2024-03-25T11:11:12;10.50;99.90
47022;DHT22;32779;52.264;6.154;2024-03-25T11:13:38;10.60;99.90
47022;DHT22;32779;52.264;6.154;2024-03-25T11:16:06;10.70;99.90
47022;DHT22;32779;52.264;6.154;2024-03-25T11:18:32;10.70;99.90
47022;DHT22;32779;52.264;6.154;2024-03-25T11:21:06;10.80;99.90
47022;DHT22;32779;52.264;6.154;2024-03-25T11:23:42;10.80;99.90
47022;DHT22;32779;52.264;6.154;2024-03-25T11:26:22;10.90;99.90
47022;DHT22;32779;52.264;6.154;2024-03-25T11:28:49;11.00;99.90
47022;DHT22;32779;52.264;6.154;2024-03-25T11:31:15;11.00;99.90
47022;DHT22;32779;52.264;6.154;2024-03-25T11:33:42;11.10;99.90
47022;DHT22;32779;52.264;6.154;2024-03-25T11:36:09;11.20;99.90
47022;DHT22;32779;52.264;6.154;2024-03-25T11:38:34;11.20;99.90
47022;DHT22;32779;52.264;6.154;2024-03-25T11:41:00;11.20;99.90
47022;DHT22;32779;52.264;6.154;2024-03-25T11:43:26;11.20;99.90
47022;DHT22;32779;52.264;6.154;2024-03-25T11:45:52;11.20;99.90
47022;DHT22;32779;52.264;6.154;2024-03-25T11:48:19;11.20;99.90
47022;DHT22;32779;52.264;6.154;2024-03-25T11:50:46;11.10;99.90
47022;DHT22;32779;52.264;6.154;2024-03-25T11:53:13;11.10;99.90
47022;DHT22;32779;52.264;6.154;2024-03-25T11:55:40;11.00;99.90
47022;DHT22;32779;52.264;6.154;2024-03-25T11:58:07;11.00;99.90
47022;DHT22;32779;52.264;6.154;2024-03-25T12:00:33;11.00;99.90
47022;DHT22;32779;52.264;6.154;2024-03-25T12:02:59;10.90;99.90
47022;DHT22;32779;52.264;6.154;2024-03-25T12:05:25;10.90;99.90
47022;DHT22;32779;52.264;6.154;2024-03-25T12:07:51;11.00;99.90
47022;DHT22;32779;52.264;6.154;2024-03-25T12:10:17;11.00;99.90
47022;DHT22;32779;52.264;6.154;2024-03-25T12:13:01;11.10;99.90
47022;DHT22;32779;52.264;6.154;2024-03-25T12:15:27;11.20;99.90
47022;DHT22;32779;52.264;6.154;2024-03-25T12:17:53;11.40;99.90
47022;DHT22;32779;52.264;6.154;2024-03-25T12:20:19;11.30;99.90
47022;DHT22;32779;52.264;6.154;2024-03-25T12:22:45;11.30;99.90
47022;DHT22;32779;52.264;6.154;2024-03-25T12:25:11;11.30;99.90
47022;DHT22;32779;52.264;6.154;2024-03-25T12:27:37;11.20;99.90
47022;DHT22;32779;52.264;6.154;2024-03-25T12:30:06;11.30;99.90
47022;DHT22;32779;52.264;6.154;2024-03-25T12:32:41;11.30;99.90
47022;DHT22;32779;52.264;6.154;2024-03-25T12:35:12;11.40;99.90
47022;DHT22;32779;52.264;6.154;2024-03-25T12:37:41;11.30;99.90
47022;DHT22;32779;52.264;6.154;2024-03-25T12:40:09;11.30;99.90
47022;DHT22;32779;52.264;6.154;2024-03-25T12:42:36;11.30;99.90
47022;DHT22;32779;52.264;6.154;2024-03-25T12:45:02;11.30;99.90
47022;DHT22;32779;52.264;6.154;2024-03-25T12:47:29;11.30;99.90
47022;DHT22;32779;52.264;6.154;2024-03-25T12:49:55;11.40;99.90
47022;DHT22;32779;52.264;6.154;2024-03-25T12:52:21;11.40;99.90
47022;DHT22;32779;52.264;6.154;2024-03-25T12:54:47;11.40;99.90
47022;DHT22;32779;52.264;6.154;2024-03-25T12:57:12;11.40;99.90
47022;DHT22;32779;52.264;6.154;2024-03-25T12:59:38;11.30;99.90
47022;DHT22;32779;52.264;6.154;2024-03-25T13:02:04;11.20;99.90
47022;DHT22;32779;52.264;6.154;2024-03-25T13:04:29;11.10;99.90
47022;DHT22;32779;52.264;6.154;2024-03-25T13:06:55;11.00;99.90
47022;DHT22;32779;52.264;6.154;2024-03-25T13:09:21;11.00;99.90
47022;DHT22;32779;52.264;6.154;2024-03-25T13:11:46;11.00;99.90
47022;DHT22;32779;52.264;6.154;2024-03-25T13:14:12;11.10;99.90
47022;DHT22;32779;52.264;6.154;2024-03-25T13:16:41;11.20;99.90
47022;DHT22;32779;52.264;6.154;2024-03-25T13:19:06;11.20;99.90
47022;DHT22;32779;52.264;6.154;2024-03-25T13:21:33;11.20;99.90
47022;DHT22;32779;52.264;6.154;2024-03-25T13:23:59;11.30;99.90
47022;DHT22;32779;52.264;6.154;2024-03-25T13:26:24;11.30;99.90
47022;DHT22;32779;52.264;6.154;2024-03-25T13:28:51;11.30;99.90
47022;DHT22;32779;52.264;6.154;2024-03-25T13:31:17;11.30;99.90
47022;DHT22;32779;52.264;6.154;2024-03-25T13:33:42;11.30;99.90
47022;DHT22;32779;52.264;6.154;2024-03-25T13:36:08;11.20;99.90
47022;DHT22;32779;52.264;6.154;2024-03-25T13:38:34;11.30;99.90
47022;DHT22;32779;52.264;6.154;2024-03-25T13:41:03;11.30;99.90
47022;DHT22;32779;52.264;6.154;2024-03-25T13:43:28;11.40;99.90
47022;DHT22;32779;52.264;6.154;2024-03-25T13:45:54;11.40;99.90
47022;DHT22;32779;52.264;6.154;2024-03-25T13:48:20;11.30;99.90
47022;DHT22;32779;52.264;6.154;2024-03-25T13:50:45;11.30;99.90
47022;DHT22;32779;52.264;6.154;2024-03-25T13:53:11;11.30;99.90
47022;DHT22;32779;52.264;6.154;2024-03-25T13:55:36;11.30;99.90
47022;DHT22;32779;52.264;6.154;2024-03-25T13:58:02;11.20;99.90
47022;DHT22;32779;52.264;6.154;2024-03-25T14:00:28;11.20;99.90
47022;DHT22;32779;52.264;6.154;2024-03-25T14:02:54;11.10;99.90
47022;DHT22;32779;52.264;6.154;2024-03-25T14:05:21;11.10;99.90
47022;DHT22;32779;52.264;6.154;2024-03-25T14:07:49;11.00;99.90
47022;DHT22;32779;52.264;6.154;2024-03-25T14:10:14;11.00;99.90
47022;DHT22;32779;52.264;6.154;2024-03-25T14:12:40;10.90;99.90
47022;DHT22;32779;52.264;6.154;2024-03-25T14:15:07;10.90;99.90
47022;DHT22;32779;52.264;6.154;2024-03-25T14:17:33;10.80;99.90
47022;DHT22;32779;52.264;6.154;2024-03-25T14:19:58;10.80;99.90
47022;DHT22;32779;52.264;6.154;2024-03-25T14:22:24;10.80;99.90
47022;DHT22;32779;52.264;6.154;2024-03-25T14:24:50;10.80;99.90
47022;DHT22;32779;52.264;6.154;2024-03-25T14:27:17;10.80;99.90
47022;DHT22;32779;52.264;6.154;2024-03-25T14:29:43;10.80;99.90
47022;DHT22;32779;52.264;6.154;2024-03-25T14:32:08;10.70;99.90
47022;DHT22;32779;52.264;6.154;2024-03-25T14:34:34;10.70;99.90
47022;DHT22;32779;52.264;6.154;2024-03-25T14:37:00;10.70;99.90
47022;DHT22;32779;52.264;6.154;2024-03-25T14:39:29;10.80;99.90
47022;DHT22;32779;52.264;6.154;2024-03-25T14:41:54;10.80;99.90
47022;DHT22;32779;52.264;6.154;2024-03-25T14:44:20;10.80;99.90
47022;DHT22;32779;52.264;6.154;2024-03-25T14:46:46;10.80;99.90
47022;DHT22;32779;52.264;6.154;2024-03-25T14:49:12;10.70;99.90
47022;DHT22;32779;52.264;6.154;2024-03-25T14:51:38;10.70;99.90
47022;DHT22;32779;52.264;6.154;2024-03-25T14:54:03;10.70;99.90
47022;DHT22;32779;52.264;6.154;2024-03-25T14:56:29;10.60;99.90
47022;DHT22;32779;52.264;6.154;2024-03-25T14:58:55;10.60;99.90
47022;DHT22;32779;52.264;6.154;2024-03-25T15:01:21;10.60;99.90
47022;DHT22;32779;52.264;6.154;2024-03-25T15:03:46;10.60;99.90
47022;DHT22;32779;52.264;6.154;2024-03-25T15:06:13;10.60;99.90
47022;DHT22;32779;52.264;6.154;2024-03-25T15:08:38;10.60;99.90
47022;DHT22;32779;52.264;6.154;2024-03-25T15:11:05;10.50;99.90
47022;DHT22;32779;52.264;6.154;2024-03-25T15:13:31;10.50;99.90
47022;DHT22;32779;52.264;6.154;2024-03-25T15:15:57;10.50;99.60
47022;DHT22;32779;52.264;6.154;2024-03-25T15:18:23;10.50;99.30
47022;DHT22;32779;52.264;6.154;2024-03-25T15:21:02;10.50;99.00
47022;DHT22;32779;52.264;6.154;2024-03-25T15:23:28;10.50;99.20
47022;DHT22;32779;52.264;6.154;2024-03-25T15:25:54;10.50;99.40
47022;DHT22;32779;52.264;6.154;2024-03-25T15:28:20;10.50;99.80
47022;DHT22;32779;52.264;6.154;2024-03-25T15:30:49;10.50;99.90
47022;DHT22;32779;52.264;6.154;2024-03-25T15:33:16;10.60;99.20
47022;DHT22;32779;52.264;6.154;2024-03-25T15:35:41;10.60;98.90
47022;DHT22;32779;52.264;6.154;2024-03-25T15:38:07;10.60;99.00